Saint Helena, CA (94574)

5:01 AM PDT on September 18, 2019 (GMT -0700)
St Helena - Stockton St | | Change Station

Elev 272 ft 38.50 °N, 122.47 °W | Updated 9 seconds ago

Overcast
Overcast
60.8 °F
Feels Like 60.8 °F
N
0
Wind Variable Wind from West
Gusts 0.0 mph

Today
High -- | Low -- °F
--% Chance of Precip.
Yesterday
High -- | Low -- °F
Precip. -- in
Pressure 29.89 in
Visibility 3.0 miles
Clouds Mostly Cloudy 1000 ft
Overcast 1800 ft
Dew Point 43 °F
Humidity 51%
Rainfall 0.00 in
Snow Depth Not available.
6:53 AM 7:13 PM
Waning Gibbous, 84% visible
METAR KSTS 181153Z AUTO 17004KT 3SM -RA BR BKN010 OVC018 16/16 A2991 RMK AO2 RAB37 SLP122 P0001 60001 70001 T01610156 10161 20139 56014
Pressure 29.89 in
Visibility 3.0 miles
Clouds Mostly Cloudy 1000 ft
Overcast 1800 ft
Dew Point 43 °F
Humidity 51%
Rainfall 0.00 in
Snow Depth Not available.
6:53 AM 7:13 PM
Waning Gibbous, 84% visible
METAR KSTS 181153Z AUTO 17004KT 3SM -RA BR BKN010 OVC018 16/16 A2991 RMK AO2 RAB37 SLP122 P0001 60001 70001 T01610156 10161 20139 56014

Get Severe Weather Alerts

Thanks for signing up!

Be on the lookout for a verification email in your inbox.

You'll start receiving the daily forecast at 6 AM.

×

10-Day Weather Forecast

Almanac

Astronomy

Sep. 18, 2019 Rise Set
Actual Time
Civil Twilight
Nautical Twilight
Astronomical Twilight
Moon
Length of Visible Light
Length of Day
Tomorrow will be .
, % of the Moon is Illuminated

Today's Extremes

State Highs State Lows

Community

WunderPhotos

Category 6

Welcome to Category 6. This is the collective home for Weather Underground's featured writeups by Dr. Jeff Masters (right), Bob Henson (left), Chris Burt, and other regular contributors.

Nearby

Air Quality

  Air Quality AQ Index Pollutant
Not available.

Snow Depth

Station Depth Elevation

Earthquake Activity

City Distance Mag. Time & Date
Minimum magnitude displayed is 2.5.

Coastal Water Temperatures

Place Temperature

Stations

Nearby Weather Stations

Station Location Temp. Windchill Dew Point Humidity Wind Precip. Elev Updated Type
                   

Watches & Warnings

There are currently no watches in effect.